Time;durP1;ratioP1;P1;durP2;ratioP2;P2;SDS_P1;SDS_P2;PMS_P1;PMS_P2;Temp;Humidity;BMP_temperature;BMP_pressure;BME280_temperature;BME280_humidity;BME280_pressure;Samples;Min_cycle;Max_cycle;Signal;HPM_P1;HPM_P2
2022/11/13 00:02:13;;;;;;;28.80;16.40;;;;;5.70;102062.00;;;;10460115;28;20201;-74
2022/11/13 00:07:34;;;;;;;33.37;16.23;;;;;5.60;102072.00;;;;10441250;28;20225;-74
2022/11/13 00:12:55;;;;;;;26.23;16.77;;;;;5.50;102060.00;;;;10462630;28;20209;-74
2022/11/13 00:18:15;;;;;;;28.00;17.23;;;;;5.40;102065.00;;;;10467292;28;20737;-76
2022/11/13 00:23:36;;;;;;;25.33;16.17;;;;;5.30;102058.00;;;;10483816;28;20197;-74
2022/11/13 00:28:59;;;;;;;23.80;16.13;;;;;5.30;102051.00;;;;10481252;28;20235;-74
2022/11/13 00:34:19;;;;;;;25.27;15.57;;;;;5.20;102049.00;;;;10456684;28;20218;-74
2022/11/13 00:39:59;;;;;;;26.33;16.57;;;;;5.20;102046.00;;;;10444857;28;20546;-74
2022/11/13 00:45:20;;;;;;;32.33;17.27;;;;;5.10;102034.00;;;;10443877;28;20660;-74
2022/11/13 00:50:40;;;;;;;24.30;16.73;;;;;4.90;102032.00;;;;10465743;28;20177;-74
2022/11/13 00:56:01;;;;;;;24.40;16.20;;;;;4.90;102026.00;;;;10465626;28;20668;-74
2022/11/13 01:01:21;;;;;;;21.97;16.00;;;;;4.80;102016.00;;;;10482491;28;20327;-74
2022/11/13 01:06:43;;;;;;;19.97;14.23;;;;;4.80;102005.00;;;;10437830;28;20218;-74
2022/11/13 01:12:04;;;;;;;24.30;16.73;;;;;4.80;101992.00;;;;10438230;28;20596;-73
2022/11/13 01:17:24;;;;;;;25.37;16.00;;;;;4.80;101994.00;;;;10436733;28;20248;-73
2022/11/13 01:22:45;;;;;;;20.73;15.00;;;;;4.80;101976.00;;;;10439994;28;20269;-73
2022/11/13 01:28:05;;;;;;;23.27;15.57;;;;;4.80;101981.00;;;;10440250;28;20193;-74
2022/11/13 01:33:26;;;;;;;19.73;14.13;;;;;4.80;101973.00;;;;10475609;28;20296;-74
2022/11/13 01:38:47;;;;;;;19.50;13.70;;;;;4.80;101968.00;;;;10419305;28;20284;-74
2022/11/13 01:44:15;;;;;;;20.20;13.43;;;;;4.70;101959.00;;;;10436272;28;20179;-74
2022/11/13 01:49:39;;;;;;;20.37;12.93;;;;;4.70;101956.00;;;;10435995;28;20618;-74
2022/11/13 01:55:09;;;;;;;19.07;13.33;;;;;4.70;101962.00;;;;10421741;28;20214;-75
2022/11/13 02:00:29;;;;;;;20.93;13.80;;;;;4.70;101954.00;;;;10419192;28;20645;-75
2022/11/13 02:05:52;;;;;;;24.83;16.73;;;;;4.70;101948.00;;;;10440960;28;20244;-75
2022/11/13 02:11:12;;;;;;;24.37;16.37;;;;;4.60;101932.00;;;;10476249;28;20209;-75
2022/11/13 02:16:35;;;;;;;26.97;15.90;;;;;4.60;101920.00;;;;10461985;28;20792;-75
2022/11/13 02:22:44;;;;;;;23.93;14.57;;;;;4.50;101934.00;;;;10461730;28;20258;-75
2022/11/13 02:28:04;;;;;;;21.63;14.80;;;;;4.50;101933.00;;;;10472184;28;20683;-75
2022/11/13 02:33:30;;;;;;;24.73;13.27;;;;;4.40;101922.00;;;;10475162;28;20246;-75
2022/11/13 02:38:52;;;;;;;19.77;13.27;;;;;4.30;101918.00;;;;10420062;28;20217;-75
2022/11/13 02:44:12;;;;;;;19.60;13.33;;;;;4.20;101913.00;;;;10420047;28;20691;-75
2022/11/13 02:49:33;;;;;;;21.97;13.20;;;;;4.20;101915.00;;;;10419496;28;20194;-75
2022/11/13 02:54:53;;;;;;;18.97;13.07;;;;;4.10;101899.00;;;;10419602;28;20621;-75
2022/11/13 03:00:14;;;;;;;20.37;13.63;;;;;4.10;101904.00;;;;10433546;28;20676;-74
2022/11/13 03:05:34;;;;;;;19.13;12.93;;;;;4.00;101890.00;;;;10453983;28;20668;-75
2022/11/13 03:10:55;;;;;;;16.87;12.43;;;;;3.90;101880.00;;;;10460612;28;20185;-75
2022/11/13 03:16:16;;;;;;;17.97;12.10;;;;;3.90;101870.00;;;;10442013;28;20569;-75
2022/11/13 03:21:36;;;;;;;16.17;11.87;;;;;3.80;101869.00;;;;10432725;28;20198;-75
2022/11/13 03:26:57;;;;;;;19.23;12.83;;;;;3.70;101860.00;;;;10432900;28;20194;-74
2022/11/13 03:32:17;;;;;;;18.63;12.73;;;;;3.70;101857.00;;;;10449363;28;20194;-74
2022/11/13 03:37:38;;;;;;;19.90;13.47;;;;;3.80;101859.00;;;;10439170;28;20285;-74
2022/11/13 03:42:58;;;;;;;23.07;13.20;;;;;3.80;101861.00;;;;10445460;28;20660;-74
2022/11/13 03:48:19;;;;;;;20.30;13.00;;;;;3.90;101853.00;;;;10481582;28;20185;-75
2022/11/13 03:53:40;;;;;;;18.10;12.53;;;;;3.90;101856.00;;;;10484140;28;20223;-74
2022/11/13 03:59:00;;;;;;;19.70;13.37;;;;;3.90;101851.00;;;;10480978;28;20197;-74
2022/11/13 04:04:21;;;;;;;20.10;12.60;;;;;3.90;101849.00;;;;10456828;28;20206;-74
2022/11/13 04:09:41;;;;;;;17.13;13.10;;;;;3.90;101856.00;;;;10425581;28;20201;-74
2022/11/13 04:15:02;;;;;;;23.93;13.77;;;;;3.90;101857.00;;;;10441846;28;20198;-74
2022/11/13 04:20:23;;;;;;;22.07;13.80;;;;;3.90;101841.00;;;;10442161;28;20186;-74
2022/11/13 04:25:44;;;;;;;18.63;13.53;;;;;3.90;101844.00;;;;10441727;28;20193;-74
2022/11/13 04:31:05;;;;;;;18.60;12.93;;;;;3.80;101851.00;;;;10443527;28;20219;-74
2022/11/13 04:36:25;;;;;;;20.97;14.20;;;;;3.70;101849.00;;;;10465533;28;20760;-74
2022/11/13 04:47:25;;;;;;;22.07;12.73;;;;;3.70;101832.00;;;;10426336;28;20604;-74
2022/11/13 04:52:46;;;;;;;20.57;14.40;;;;;3.70;101828.00;;;;10420625;28;20210;-74
2022/11/13 04:58:06;;;;;;;21.10;13.30;;;;;3.60;101836.00;;;;10421276;28;20221;-74
2022/11/13 05:03:26;;;;;;;21.90;13.40;;;;;3.50;101827.00;;;;10423877;28;20197;-74
2022/11/13 05:08:47;;;;;;;17.87;13.00;;;;;3.50;101823.00;;;;10489105;28;20206;-74
2022/11/13 05:14:10;;;;;;;17.80;12.73;;;;;3.40;101812.00;;;;10464552;28;20691;-74
2022/11/13 05:19:34;;;;;;;17.33;12.90;;;;;3.30;101800.00;;;;10437447;28;20293;-74
2022/11/13 05:24:54;;;;;;;21.70;14.33;;;;;3.20;101795.00;;;;10434429;28;20212;-74
2022/11/13 05:30:15;;;;;;;21.33;14.30;;;;;3.20;101789.00;;;;10451742;28;20197;-74
2022/11/13 05:35:35;;;;;;;17.47;12.97;;;;;3.20;101795.00;;;;10474758;28;20699;-74
2022/11/13 05:41:14;;;;;;;23.60;13.57;;;;;3.10;101789.00;;;;10453998;28;20643;-74
2022/11/13 05:46:34;;;;;;;20.13;13.93;;;;;3.10;101799.00;;;;10436503;28;20225;-74
2022/11/13 05:51:54;;;;;;;22.43;13.90;;;;;3.00;101796.00;;;;10435676;28;20194;-74
2022/11/13 05:57:15;;;;;;;20.47;12.80;;;;;3.00;101782.00;;;;10435853;28;20213;-74
2022/11/13 06:02:36;;;;;;;17.60;11.70;;;;;2.90;101772.00;;;;10452350;28;20183;-74
2022/11/13 06:07:56;;;;;;;16.50;11.63;;;;;2.90;101770.00;;;;10474837;28;20572;-74
2022/11/13 06:13:17;;;;;;;16.30;12.90;;;;;2.80;101771.00;;;;10476005;28;20204;-74
2022/11/13 06:18:38;;;;;;;15.23;11.57;;;;;2.70;101773.00;;;;10475972;28;20186;-74
2022/11/13 06:24:00;;;;;;;16.87;12.60;;;;;2.70;101784.00;;;;10475594;28;20533;-74
2022/11/13 06:29:21;;;;;;;15.63;12.67;;;;;2.60;101759.00;;;;10438046;28;20230;-74
2022/11/13 06:34:41;;;;;;;17.50;12.43;;;;;2.60;101763.00;;;;10434138;28;20226;-74
2022/11/13 06:40:02;;;;;;;19.10;12.27;;;;;2.50;101759.00;;;;10420320;28;20194;-74
2022/11/13 06:45:22;;;;;;;16.17;11.27;;;;;2.50;101752.00;;;;10417373;28;20194;-74
2022/11/13 06:50:43;;;;;;;15.97;11.53;;;;;2.40;101757.00;;;;10403496;28;20205;-74
2022/11/13 06:56:08;;;;;;;15.50;11.33;;;;;2.40;101759.00;;;;10433614;28;20202;-74
2022/11/13 07:01:29;;;;;;;17.90;11.60;;;;;2.40;101754.00;;;;10448476;28;20208;-74
2022/11/13 07:06:49;;;;;;;17.03;12.10;;;;;2.40;101746.00;;;;10477330;28;20615;-74
2022/11/13 07:12:10;;;;;;;20.00;13.10;;;;;2.50;101745.00;;;;10460800;28;20189;-74
2022/11/13 07:17:30;;;;;;;16.57;12.40;;;;;2.60;101738.00;;;;10422460;28;20243;-74
2022/11/13 07:22:54;;;;;;;17.50;13.37;;;;;2.70;101744.00;;;;10416606;28;20216;-74
2022/11/13 07:28:14;;;;;;;19.40;14.30;;;;;2.90;101747.00;;;;10469041;28;20735;-74
2022/11/13 07:33:35;;;;;;;20.80;14.57;;;;;3.10;101747.00;;;;10458832;28;20557;-74
2022/11/13 07:38:55;;;;;;;19.13;13.50;;;;;3.30;101738.00;;;;10440925;28;20218;-74
2022/11/13 07:44:20;;;;;;;21.23;14.47;;;;;3.50;101745.00;;;;10441448;28;20190;-74
2022/11/13 07:50:00;;;;;;;21.23;15.80;;;;;3.70;101734.00;;;;10424318;28;20328;-73
2022/11/13 07:55:29;;;;;;;22.17;15.53;;;;;3.90;101729.00;;;;10427951;28;20209;-74
2022/11/13 08:00:49;;;;;;;18.37;13.53;;;;;3.90;101734.00;;;;10423594;28;20252;-74
2022/11/13 08:06:10;;;;;;;19.37;14.03;;;;;3.80;101733.00;;;;10426007;28;20580;-74
2022/11/13 08:11:30;;;;;;;20.30;14.47;;;;;4.00;101739.00;;;;10409236;28;20198;-75
2022/11/13 08:16:51;;;;;;;18.53;14.30;;;;;4.00;101734.00;;;;10453473;28;20201;-74
2022/11/13 08:22:12;;;;;;;21.60;15.07;;;;;4.20;101733.00;;;;10480528;28;20704;-75
2022/11/13 08:27:32;;;;;;;22.07;16.10;;;;;4.30;101732.00;;;;10480619;28;20272;-75
2022/11/13 08:32:53;;;;;;;27.87;17.57;;;;;4.60;101734.00;;;;10484501;28;20303;-75
2022/11/13 08:38:13;;;;;;;27.53;18.17;;;;;4.90;101735.00;;;;10466160;28;20188;-75
2022/11/13 08:43:34;;;;;;;26.97;19.13;;;;;5.20;101732.00;;;;10449497;28;20188;-75
2022/11/13 08:48:54;;;;;;;34.97;21.50;;;;;5.60;101723.00;;;;10449350;28;20201;-75
2022/11/13 08:54:15;;;;;;;37.53;24.90;;;;;6.10;101716.00;;;;10498991;28;20205;-75
2022/11/13 08:59:36;;;;;;;34.03;24.47;;;;;6.50;101713.00;;;;10481423;28;20186;-75
2022/11/13 09:04:56;;;;;;;27.50;19.57;;;;;6.50;101709.00;;;;10464381;28;20206;-75
2022/11/13 09:10:17;;;;;;;21.03;16.67;;;;;6.60;101714.00;;;;10424058;28;20284;-75
2022/11/13 09:15:38;;;;;;;23.40;17.30;;;;;6.70;101714.00;;;;10454099;28;20202;-75
2022/11/13 09:21:02;;;;;;;27.20;19.30;;;;;6.60;101720.00;;;;10407290;28;20190;-75
2022/11/13 09:26:22;;;;;;;26.97;20.00;;;;;6.80;101720.00;;;;10436752;28;20217;-75
2022/11/13 09:31:44;;;;;;;27.50;21.83;;;;;7.50;101717.00;;;;10449595;28;20720;-75
2022/11/13 09:37:04;;;;;;;23.27;18.70;;;;;7.90;101701.00;;;;10462873;28;20206;-75
2022/11/13 09:42:27;;;;;;;24.23;17.80;;;;;8.60;101698.00;;;;10421901;28;20194;-75
2022/11/13 09:47:50;;;;;;;23.97;15.37;;;;;9.10;101697.00;;;;10422421;28;20697;-76
2022/11/13 09:53:13;;;;;;;17.90;14.30;;;;;9.50;101692.00;;;;10421733;28;20604;-76
2022/11/13 09:58:45;;;;;;;18.83;14.40;;;;;9.80;101681.00;;;;10421934;28;20201;-76
2022/11/13 10:04:10;;;;;;;15.97;13.53;;;;;10.10;101677.00;;;;10468713;28;20191;-76
2022/11/13 10:09:58;;;;;;;269.40;50.57;;;;;10.60;101661.00;;;;10446195;28;20204;-76
2022/11/13 10:15:19;;;;;;;206.00;45.67;;;;;11.10;101672.00;;;;10454639;28;20264;-76
2022/11/13 10:20:47;;;;;;;24.00;17.83;;;;;11.50;101676.00;;;;10420810;28;20217;-76
2022/11/13 10:26:16;;;;;;;56.30;23.33;;;;;11.90;101668.00;;;;10452479;28;20331;-75
2022/11/13 10:31:45;;;;;;;18.77;15.20;;;;;12.30;101661.00;;;;10460694;28;20193;-75
2022/11/13 10:37:19;;;;;;;17.10;13.80;;;;;12.60;101665.00;;;;10460334;28;20208;-75
2022/11/13 10:42:40;;;;;;;14.93;11.83;;;;;12.80;101658.00;;;;10420495;28;20179;-76
2022/11/13 10:48:01;;;;;;;13.10;10.47;;;;;13.10;101655.00;;;;10442159;28;20193;-76
2022/11/13 10:53:27;;;;;;;10.23;9.10;;;;;13.30;101643.00;;;;10460756;28;20235;-76
2022/11/13 10:59:03;;;;;;;9.17;8.20;;;;;13.50;101624.00;;;;10478240;28;20544;-76
2022/11/13 11:04:28;;;;;;;9.23;7.60;;;;;13.60;101626.00;;;;10475092;28;20210;-75
2022/11/13 11:09:50;;;;;;;8.60;7.27;;;;;13.80;101615.00;;;;10477746;28;20185;-75
2022/11/13 11:15:25;;;;;;;10.97;6.97;;;;;13.90;101619.00;;;;10454289;28;20205;-75
2022/11/13 11:20:54;;;;;;;8.37;6.60;;;;;14.10;101614.00;;;;10451315;28;20186;-75
2022/11/13 11:26:25;;;;;;;8.45;7.13;;;;;14.20;101602.00;;;;10436116;28;20186;-75
2022/11/13 11:32:14;;;;;;;8.25;6.43;;;;;14.40;101593.00;;;;10446487;28;20205;-75
2022/11/13 11:37:41;;;;;;;9.38;6.63;;;;;14.60;101588.00;;;;10437007;28;20288;-75
2022/11/13 11:43:19;;;;;;;6.60;5.70;;;;;14.80;101583.00;;;;10433308;28;20186;-76
2022/11/13 11:48:40;;;;;;;7.65;5.78;;;;;15.10;101567.00;;;;10433246;28;20233;-76
2022/11/13 11:54:13;;;;;;;7.25;5.30;;;;;15.40;101569.00;;;;10432509;28;20214;-76
2022/11/13 11:59:55;;;;;;;6.13;5.22;;;;;15.70;101556.00;;;;10432633;28;20198;-76
2022/11/13 12:05:15;;;;;;;5.85;5.05;;;;;15.90;101548.00;;;;10436527;28;20584;-76
2022/11/13 12:11:17;;;;;;;7.65;5.35;;;;;16.20;101541.00;;;;10427148;28;20182;-76
2022/11/13 12:17:14;;;;;;;6.90;4.85;;;;;16.40;101534.00;;;;10439815;28;20834;-76
2022/11/13 12:23:06;;;;;;;5.20;4.70;;;;;16.60;101536.00;;;;10457510;28;20201;-76
2022/11/13 12:28:48;;;;;;;6.20;5.13;;;;;16.80;101530.00;;;;10429727;28;20195;-76
2022/11/13 12:34:30;;;;;;;5.30;4.70;;;;;16.80;101517.00;;;;10457375;28;20193;-76
2022/11/13 12:40:04;;;;;;;6.25;5.35;;;;;16.90;101501.00;;;;10457261;28;20613;-76
2022/11/13 12:45:52;;;;;;;6.13;5.40;;;;;17.00;101494.00;;;;10425004;28;20186;-76
2022/11/13 12:51:17;;;;;;;7.75;6.28;;;;;17.10;101493.00;;;;10422195;28;20194;-76
2022/11/13 12:56:37;;;;;;;9.43;7.70;;;;;17.20;101477.00;;;;10424627;28;20217;-76
2022/11/13 13:02:07;;;;;;;10.10;8.18;;;;;17.20;101479.00;;;;10438069;28;20205;-76
2022/11/13 13:07:59;;;;;;;9.05;7.40;;;;;17.20;101475.00;;;;10437971;28;20210;-76
2022/11/13 13:13:34;;;;;;;11.13;7.05;;;;;17.20;101473.00;;;;10440683;28;20190;-76
2022/11/13 13:19:31;;;;;;;7.95;6.25;;;;;17.10;101461.00;;;;10423227;28;20285;-76
2022/11/13 13:25:03;;;;;;;8.07;6.72;;;;;16.80;101450.00;;;;10400422;28;20236;-76
2022/11/13 13:30:25;;;;;;;7.70;6.00;;;;;16.70;101438.00;;;;10426385;28;20212;-76
2022/11/13 13:36:14;;;;;;;10.18;6.00;;;;;16.90;101427.00;;;;10459013;28;20746;-75
2022/11/13 13:42:20;;;;;;;7.03;5.78;;;;;17.00;101418.00;;;;10463434;28;20247;-76
2022/11/13 13:47:47;;;;;;;7.05;5.50;;;;;17.10;101415.00;;;;10454385;28;20193;-76
2022/11/13 13:53:12;;;;;;;5.90;4.82;;;;;16.80;101406.00;;;;10477229;28;20678;-76
2022/11/13 13:58:35;;;;;;;6.95;5.18;;;;;16.60;101402.00;;;;10494220;28;20240;-75
2022/11/13 14:04:18;;;;;;;5.13;4.45;;;;;16.70;101400.00;;;;10472867;28;20661;-75
2022/11/13 14:09:39;;;;;;;6.45;4.93;;;;;16.90;101398.00;;;;10421266;28;20790;-74
2022/11/13 14:15:03;;;;;;;6.68;5.68;;;;;18.50;101389.00;;;;10437749;28;20285;-75
2022/11/13 14:20:24;;;;;;;8.18;4.95;;;;;16.80;101393.00;;;;10437605;28;20202;-75
2022/11/13 14:25:45;;;;;;;7.30;5.13;;;;;15.70;101395.00;;;;10420916;28;20198;-75
2022/11/13 14:31:10;;;;;;;9.05;5.45;;;;;15.10;101386.00;;;;10404519;28;20190;-76
2022/11/13 14:36:32;;;;;;;6.47;5.10;;;;;14.70;101389.00;;;;10434026;28;20202;-75
2022/11/13 14:41:56;;;;;;;5.90;5.30;;;;;14.30;101389.00;;;;10437183;28;20190;-75
2022/11/13 14:47:25;;;;;;;8.75;6.00;;;;;14.10;101386.00;;;;10466561;28;20225;-75
2022/11/13 14:52:55;;;;;;;6.68;5.95;;;;;13.90;101375.00;;;;10493442;28;20181;-75
2022/11/13 14:58:32;;;;;;;6.77;5.90;;;;;13.60;101376.00;;;;10478521;28;20190;-75
2022/11/13 15:03:52;;;;;;;8.10;5.83;;;;;13.70;101377.00;;;;10478047;28;20189;-75
2022/11/13 15:09:16;;;;;;;8.27;5.37;;;;;13.50;101369.00;;;;10461309;28;20189;-76
2022/11/13 15:14:39;;;;;;;6.83;5.47;;;;;13.00;101367.00;;;;10456375;28;20209;-76
2022/11/13 15:19:59;;;;;;;10.80;6.00;;;;;12.60;101372.00;;;;10433456;28;20284;-76
2022/11/13 15:25:27;;;;;;;10.00;6.10;;;;;12.30;101360.00;;;;10433733;28;20198;-76
2022/11/13 15:30:48;;;;;;;20.27;11.80;;;;;11.90;101348.00;;;;10439122;28;20201;-76
2022/11/13 15:36:09;;;;;;;20.03;12.03;;;;;11.60;101339.00;;;;10460679;28;20671;-75
2022/11/13 15:41:31;;;;;;;24.83;12.80;;;;;11.30;101333.00;;;;10482842;28;20660;-75
2022/11/13 15:46:52;;;;;;;22.03;11.77;;;;;10.90;101323.00;;;;10468222;28;20193;-75
2022/11/13 15:52:12;;;;;;;26.23;13.83;;;;;10.60;101322.00;;;;10424360;28;20194;-75
2022/11/13 15:57:33;;;;;;;32.27;15.77;;;;;10.30;101301.00;;;;10460774;28;20209;-75
2022/11/13 16:02:55;;;;;;;19.93;12.13;;;;;10.10;101301.00;;;;10481899;28;20285;-75
2022/11/13 16:08:15;;;;;;;19.80;12.87;;;;;9.90;101289.00;;;;10445219;28;20216;-75
2022/11/13 16:13:36;;;;;;;22.27;13.13;;;;;9.60;101291.00;;;;10481468;28;20181;-75
2022/11/13 16:18:57;;;;;;;23.60;14.60;;;;;9.40;101277.00;;;;10481177;28;20209;-75
2022/11/13 16:24:20;;;;;;;23.70;14.70;;;;;9.10;101280.00;;;;10467464;28;20189;-76
2022/11/13 16:29:43;;;;;;;22.27;14.80;;;;;8.90;101276.00;;;;10467323;28;20228;-75
2022/11/13 16:35:04;;;;;;;22.13;12.43;;;;;8.60;101271.00;;;;10464391;28;20202;-75
2022/11/13 16:40:25;;;;;;;21.63;11.73;;;;;8.50;101285.00;;;;10425107;28;20247;-75
2022/11/13 16:45:45;;;;;;;21.87;13.37;;;;;8.30;101277.00;;;;10444718;28;20209;-75
2022/11/13 16:51:06;;;;;;;22.50;14.40;;;;;8.10;101271.00;;;;10462585;28;20552;-75
2022/11/13 16:56:29;;;;;;;24.97;15.87;;;;;7.90;101274.00;;;;10465700;28;20202;-75
2022/11/13 17:01:53;;;;;;;22.07;13.37;;;;;7.80;101274.00;;;;10479933;28;20636;-75
2022/11/13 17:07:14;;;;;;;20.90;12.83;;;;;7.60;101270.00;;;;10421295;28;20224;-75
2022/11/13 17:12:35;;;;;;;18.67;12.17;;;;;7.50;101269.00;;;;10465569;28;20189;-75
2022/11/13 17:17:57;;;;;;;12.97;9.33;;;;;7.40;101269.00;;;;10435780;28;20680;-75
2022/11/13 17:23:17;;;;;;;15.77;9.63;;;;;7.30;101266.00;;;;10444085;28;20197;-75
2022/11/13 17:28:38;;;;;;;19.10;10.90;;;;;7.20;101256.00;;;;10496804;28;20181;-75
2022/11/13 17:33:59;;;;;;;16.97;12.63;;;;;7.10;101260.00;;;;10471257;28;20205;-75
2022/11/13 17:39:20;;;;;;;19.37;13.50;;;;;7.10;101265.00;;;;10436682;28;20190;-75
2022/11/13 17:44:42;;;;;;;22.60;13.83;;;;;6.90;101265.00;;;;10439550;28;20182;-75
2022/11/13 17:50:02;;;;;;;26.43;14.60;;;;;6.80;101263.00;;;;10436359;28;20183;-75
2022/11/13 17:55:27;;;;;;;23.50;14.73;;;;;6.80;101252.00;;;;10435986;28;20691;-75
2022/11/13 18:00:48;;;;;;;34.77;21.37;;;;;6.70;101258.00;;;;10422227;28;20190;-75
2022/11/13 18:06:12;;;;;;;46.60;27.00;;;;;6.50;101250.00;;;;10435664;28;20214;-75
2022/11/13 18:11:33;;;;;;;36.77;23.60;;;;;6.40;101244.00;;;;10432860;28;20240;-75
2022/11/13 18:16:53;;;;;;;38.40;22.77;;;;;6.30;101236.00;;;;10486568;28;20224;-75
2022/11/13 18:22:14;;;;;;;34.77;21.83;;;;;6.30;101232.00;;;;10494022;28;20190;-75
2022/11/13 18:27:35;;;;;;;34.77;23.17;;;;;6.20;101221.00;;;;10479411;28;20276;-75
2022/11/13 18:32:55;;;;;;;38.83;25.23;;;;;6.10;101222.00;;;;10462562;28;20177;-75
2022/11/13 18:38:16;;;;;;;33.73;22.43;;;;;6.00;101210.00;;;;10421202;28;20225;-75
2022/11/13 18:43:38;;;;;;;35.07;22.80;;;;;6.00;101207.00;;;;10451367;28;20170;-75
2022/11/13 18:48:58;;;;;;;36.93;23.33;;;;;5.90;101202.00;;;;10452282;28;20193;-75
2022/11/13 18:54:19;;;;;;;30.20;22.53;;;;;5.90;101194.00;;;;10437039;28;20186;-74
2022/11/13 18:59:39;;;;;;;35.37;22.03;;;;;5.80;101194.00;;;;10450918;28;20190;-75
2022/11/13 19:05:00;;;;;;;30.93;20.90;;;;;5.80;101179.00;;;;10420914;28;20202;-75
2022/11/13 19:10:21;;;;;;;36.47;22.93;;;;;5.70;101171.00;;;;10420272;28;20757;-75
2022/11/13 19:15:41;;;;;;;33.87;22.00;;;;;5.60;101167.00;;;;10441868;28;20205;-75
2022/11/13 19:21:04;;;;;;;32.60;23.37;;;;;5.50;101145.00;;;;10425916;28;20292;-75
2022/11/13 19:26:25;;;;;;;46.87;29.40;;;;;5.40;101141.00;;;;10428798;28;20189;-75
2022/11/13 19:31:47;;;;;;;40.57;26.70;;;;;5.30;101136.00;;;;10461847;28;20649;-75
2022/11/13 19:37:07;;;;;;;37.43;24.37;;;;;5.20;101133.00;;;;10439844;28;20205;-76
2022/11/13 19:42:37;;;;;;;33.50;21.37;;;;;5.10;101136.00;;;;10426220;28;20190;-75
2022/11/13 19:48:01;;;;;;;39.23;21.50;;;;;5.00;101138.00;;;;10439105;28;20938;-75
2022/11/13 19:53:21;;;;;;;36.00;22.60;;;;;4.90;101136.00;;;;10484853;28;20251;-74
2022/11/13 19:58:43;;;;;;;38.80;22.90;;;;;4.80;101125.00;;;;10466902;28;20294;-75
2022/11/13 20:04:05;;;;;;;36.50;24.13;;;;;4.80;101121.00;;;;10464895;28;20193;-75
2022/11/13 20:09:27;;;;;;;34.30;24.77;;;;;4.70;101110.00;;;;10448870;28;20190;-75
2022/11/13 20:14:48;;;;;;;40.17;26.17;;;;;4.60;101099.00;;;;10442621;28;20187;-74
2022/11/13 20:20:09;;;;;;;40.50;24.03;;;;;4.50;101111.00;;;;10453430;28;20217;-75
2022/11/13 20:25:29;;;;;;;36.63;24.20;;;;;4.40;101109.00;;;;10454679;28;20626;-75
2022/11/13 20:30:50;;;;;;;44.50;27.17;;;;;4.30;101119.00;;;;10445258;28;20200;-75
2022/11/13 20:36:11;;;;;;;40.23;26.67;;;;;4.30;101110.00;;;;10454928;28;20668;-75
2022/11/13 20:41:31;;;;;;;37.67;25.17;;;;;4.30;101102.00;;;;10469755;28;20193;-75
2022/11/13 20:46:52;;;;;;;38.73;24.17;;;;;4.20;101105.00;;;;10464195;28;20185;-75
2022/11/13 20:52:12;;;;;;;29.63;20.63;;;;;4.10;101092.00;;;;10464524;28;20260;-75
2022/11/13 20:57:33;;;;;;;38.17;24.97;;;;;4.20;101101.00;;;;10472740;28;20202;-75
2022/11/13 21:03:00;;;;;;;33.50;23.17;;;;;4.60;101089.00;;;;10453191;28;20204;-75
2022/11/13 21:08:20;;;;;;;35.00;25.10;;;;;4.60;101083.00;;;;10453706;28;20541;-74
2022/11/13 21:13:41;;;;;;;36.27;23.17;;;;;4.40;101077.00;;;;10438522;28;20803;-75
2022/11/13 21:19:02;;;;;;;34.73;23.00;;;;;4.30;101079.00;;;;10422443;28;20246;-75
2022/11/13 21:24:22;;;;;;;34.97;23.60;;;;;4.20;101070.00;;;;10434928;28;20248;-75
2022/11/13 21:29:42;;;;;;;31.33;21.37;;;;;4.00;101065.00;;;;10477891;28;20193;-75
2022/11/13 21:35:03;;;;;;;33.20;22.17;;;;;3.90;101060.00;;;;10470493;28;20263;-75
2022/11/13 21:40:23;;;;;;;34.50;21.47;;;;;3.80;101052.00;;;;10468813;28;20225;-76
2022/11/13 21:45:44;;;;;;;30.97;21.37;;;;;3.80;101046.00;;;;10430490;28;20197;-76
2022/11/13 21:51:05;;;;;;;30.80;20.30;;;;;3.70;101048.00;;;;10428952;28;20201;-75
2022/11/13 21:56:27;;;;;;;35.27;22.70;;;;;3.70;101043.00;;;;10477762;28;20239;-75
2022/11/13 22:01:47;;;;;;;31.30;20.67;;;;;3.60;101028.00;;;;10446475;28;20288;-75
2022/11/13 22:07:08;;;;;;;29.17;19.63;;;;;3.50;101011.00;;;;10461358;28;20214;-75
2022/11/13 22:12:28;;;;;;;27.17;19.27;;;;;3.50;101004.00;;;;10479162;28;20698;-75
2022/11/13 22:17:49;;;;;;;25.70;18.83;;;;;3.40;101000.00;;;;10435367;28;20293;-75
2022/11/13 22:23:10;;;;;;;27.60;19.10;;;;;3.30;100992.00;;;;10421394;28;20219;-75
2022/11/13 22:28:32;;;;;;;30.10;19.63;;;;;3.30;100989.00;;;;10421660;28;20190;-75
2022/11/13 22:33:53;;;;;;;26.63;18.37;;;;;3.30;100985.00;;;;10451995;28;20190;-75
2022/11/13 22:39:14;;;;;;;29.63;21.07;;;;;3.20;100981.00;;;;10434787;28;20210;-75
2022/11/13 22:44:35;;;;;;;34.13;22.57;;;;;3.10;100986.00;;;;10445810;28;20272;-75
2022/11/13 22:50:15;;;;;;;34.23;23.20;;;;;3.00;100998.00;;;;10464771;28;20231;-75
2022/11/13 22:55:36;;;;;;;32.83;21.90;;;;;3.00;100997.00;;;;10461857;28;20206;-75
2022/11/13 23:01:24;;;;;;;30.40;19.70;;;;;3.00;100993.00;;;;10473361;28;20276;-76
2022/11/13 23:06:45;;;;;;;30.67;18.53;;;;;3.00;100989.00;;;;10475608;28;20217;-76
2022/11/13 23:12:05;;;;;;;28.07;19.10;;;;;3.00;100984.00;;;;10444740;28;20335;-76
2022/11/13 23:17:26;;;;;;;28.23;18.93;;;;;3.00;100972.00;;;;10450604;28;20198;-76
2022/11/13 23:22:46;;;;;;;30.23;19.60;;;;;3.00;100959.00;;;;10417380;28;20206;-76
2022/11/13 23:28:08;;;;;;;28.27;18.43;;;;;3.00;100954.00;;;;10433746;28;20552;-76
2022/11/13 23:33:28;;;;;;;28.57;18.77;;;;;3.00;100934.00;;;;10446014;28;20660;-76
2022/11/13 23:38:49;;;;;;;27.40;18.97;;;;;3.00;100928.00;;;;10460659;28;20209;-76
2022/11/13 23:44:09;;;;;;;26.30;17.73;;;;;2.90;100921.00;;;;10460911;28;20189;-76
2022/11/13 23:49:30;;;;;;;26.27;17.47;;;;;2.90;100914.00;;;;10474146;28;20201;-75
2022/11/13 23:54:50;;;;;;;27.30;17.17;;;;;2.80;100914.00;;;;10474437;28;20212;-76
